Time;durP1;ratioP1;P1;durP2;ratioP2;P2;SDS_P1;SDS_P2;PMS_P1;PMS_P2;Temp;Humidity;BMP_temperature;BMP_pressure;BME280_temperature;BME280_humidity;BME280_pressure;Samples;Min_cycle;Max_cycle;Signal;HPM_P1;HPM_P2
2022/01/25 00:08:54;;;;;;;140.70;64.00;;;;;;;-0.30;71.41;100346.89;2303848;77;21002;-82
2022/01/25 00:25:17;;;;;;;127.17;60.50;;;;;;;-0.22;72.60;100317.20;2317044;77;21019;-83
2022/01/25 00:28:26;;;;;;;139.70;64.43;;;;;;;-0.17;72.67;100309.47;2316179;77;21032;-83
2022/01/25 00:31:24;;;;;;;138.37;65.03;;;;;;;-0.13;72.88;100312.77;2317694;77;21356;-83
2022/01/25 00:34:24;;;;;;;126.00;61.80;;;;;;;-0.09;72.97;100313.52;2317483;77;20995;-83
2022/01/25 00:37:24;;;;;;;132.57;62.53;;;;;;;-0.11;73.12;100308.66;2317195;77;20966;-83
2022/01/25 00:40:25;;;;;;;123.77;60.67;;;;;;;-0.13;73.38;100314.06;2317462;77;20872;-83
2022/01/25 00:43:27;;;;;;;135.00;65.40;;;;;;;-0.15;73.57;100311.77;2317257;77;20896;-83
2022/01/25 00:46:27;;;;;;;145.70;67.27;;;;;;;-0.15;73.78;100310.48;2317999;77;21003;-82
2022/01/25 00:49:29;;;;;;;135.93;64.63;;;;;;;-0.07;74.03;100306.83;2318919;77;20959;-83
2022/01/25 00:55:47;;;;;;;124.77;59.10;;;;;;;-0.01;74.15;100298.70;2287403;77;21035;-83
2022/01/25 00:58:48;;;;;;;147.67;64.90;;;;;;;0.01;74.23;100299.75;2317101;77;20919;-82
2022/01/25 01:01:48;;;;;;;134.90;62.73;;;;;;;0.05;74.32;100290.61;2318466;77;21014;-82
2022/01/25 01:04:49;;;;;;;123.73;59.73;;;;;;;0.10;74.36;100296.98;2316772;77;20978;-83
2022/01/25 01:07:51;;;;;;;140.37;64.87;;;;;;;0.09;74.44;100296.48;2285410;77;21017;-83
2022/01/25 01:10:51;;;;;;;135.43;61.30;;;;;;;0.10;74.49;100286.33;2316645;77;21329;-83
2022/01/25 01:14:24;;;;;;;132.33;60.33;;;;;;;0.12;74.57;100277.45;2315654;77;20967;-83
2022/01/25 01:37:07;;;;;;;128.30;62.17;;;;;;;0.06;75.46;100249.64;2286728;77;21353;-84
2022/01/25 01:43:02;;;;;;;123.47;59.23;;;;;;;0.12;75.79;100240.22;2285090;77;21074;-84
2022/01/25 01:49:13;;;;;;;121.20;56.40;;;;;;;0.19;75.94;100227.06;2286410;77;21067;-83
2022/01/25 01:52:13;;;;;;;115.43;54.27;;;;;;;0.25;76.12;100231.37;2317048;77;20970;-83
2022/01/25 01:55:14;;;;;;;119.23;56.07;;;;;;;0.24;76.28;100230.86;2316961;77;21033;-83
2022/01/25 01:58:15;;;;;;;113.43;54.50;;;;;;;0.20;76.48;100230.13;2316905;77;21338;-84
2022/01/25 02:01:16;;;;;;;115.40;54.97;;;;;;;0.18;76.96;100230.41;2316885;77;20959;-83
2022/01/25 02:04:16;;;;;;;125.60;59.93;;;;;;;0.13;77.09;100228.78;2316393;77;20982;-83
2022/01/25 02:07:17;;;;;;;129.43;61.47;;;;;;;0.17;77.22;100230.80;2317078;77;20887;-83
2022/01/25 02:13:20;;;;;;;128.43;60.97;;;;;;;0.23;77.64;100226.51;2286191;77;21026;-84
2022/01/25 02:22:58;;;;;;;122.00;57.40;;;;;;;0.24;78.42;100205.18;2303896;77;20954;-85
2022/01/25 02:25:59;;;;;;;119.20;57.43;;;;;;;0.21;78.55;100203.67;2303673;77;20918;-84
2022/01/25 02:28:59;;;;;;;110.93;54.43;;;;;;;0.21;78.79;100192.11;2303840;77;20916;-84
2022/01/25 02:32:00;;;;;;;113.90;56.57;;;;;;;0.18;79.14;100188.93;2303636;77;20882;-84
2022/01/25 02:35:02;;;;;;;124.30;57.10;;;;;;;0.15;79.46;100191.66;2303887;77;20933;-84
2022/01/25 02:38:06;;;;;;;118.70;59.90;;;;;;;0.13;79.58;100192.83;2303658;77;21370;-85
2022/01/25 02:41:06;;;;;;;116.90;56.50;;;;;;;0.16;79.75;100198.20;2303636;77;21020;-85
2022/01/25 02:44:08;;;;;;;116.37;57.97;;;;;;;0.20;79.99;100191.22;2302554;77;20972;-85
2022/01/25 02:50:29;;;;;;;116.40;56.77;;;;;;;0.28;80.06;100186.65;2303768;77;21417;-82
2022/01/25 02:53:29;;;;;;;133.77;59.87;;;;;;;0.27;80.30;100184.86;2303804;77;20958;-82
2022/01/25 02:56:30;;;;;;;131.47;62.13;;;;;;;0.27;80.42;100181.91;2303899;77;20961;-81
2022/01/25 02:59:30;;;;;;;112.23;54.93;;;;;;;0.29;80.47;100181.62;2303592;77;21352;-81
2022/01/25 03:02:31;;;;;;;122.03;57.67;;;;;;;0.32;80.88;100183.52;2303945;77;21273;-80
2022/01/25 03:05:31;;;;;;;130.53;60.07;;;;;;;0.35;80.83;100182.86;2304630;77;21381;-83
2022/01/25 03:08:32;;;;;;;127.87;61.97;;;;;;;0.33;81.00;100184.03;2303826;77;20941;-83
2022/01/25 03:11:33;;;;;;;125.40;58.17;;;;;;;0.34;81.07;100179.78;2302539;77;21020;-81
2022/01/25 03:14:36;;;;;;;124.33;60.97;;;;;;;0.35;81.64;100177.33;2304243;77;20950;-83
2022/01/25 03:17:44;;;;;;;128.03;59.80;;;;;;;0.52;82.57;100172.13;2301601;77;21054;-82
2022/01/25 03:20:52;;;;;;;130.90;63.23;;;;;;;0.50;81.71;100171.12;2289042;77;21011;-79
2022/01/25 03:23:51;;;;;;;124.60;58.83;;;;;;;0.52;81.83;100161.45;2291386;77;20925;-84
2022/01/25 03:26:51;;;;;;;117.07;58.40;;;;;;;0.54;81.86;100166.70;2291789;78;20888;-83
2022/01/25 03:29:52;;;;;;;125.57;61.17;;;;;;;0.55;81.96;100155.64;2291330;78;20889;-85
2022/01/25 03:32:54;;;;;;;129.70;58.33;;;;;;;0.53;82.31;100150.39;2267833;78;21043;-81
2022/01/25 03:35:55;;;;;;;116.17;55.70;;;;;;;0.51;82.42;100152.36;2291499;78;21347;-83
2022/01/25 03:38:55;;;;;;;122.60;56.00;;;;;;;0.53;82.53;100154.25;2291522;78;21322;-83
2022/01/25 03:41:56;;;;;;;115.10;55.37;;;;;;;0.54;83.55;100152.19;2291168;78;20939;-84
2022/01/25 03:44:57;;;;;;;126.07;58.20;;;;;;;0.52;83.16;100149.89;2291083;78;20973;-83
2022/01/25 03:49:47;;;;;;;115.37;54.97;;;;;;;0.52;83.02;100150.29;2291124;78;21011;-84
2022/01/25 03:51:00;;;;;;;119.07;56.17;;;;;;;0.52;83.55;100152.47;2287649;77;21040;-83
2022/01/25 03:54:00;;;;;;;124.63;56.03;;;;;;;0.51;83.46;100150.68;2291295;78;21360;-84
2022/01/25 03:57:00;;;;;;;114.07;55.70;;;;;;;0.50;83.30;100143.75;2291356;78;20995;-84
2022/01/25 04:00:01;;;;;;;123.07;57.13;;;;;;;0.53;83.36;100132.41;2291082;78;20964;-83
2022/01/25 04:03:07;;;;;;;116.10;56.93;;;;;;;0.59;83.62;100129.00;2290957;78;20999;-84
2022/01/25 04:06:05;;;;;;;120.73;54.77;;;;;;;0.60;83.54;100135.92;2289085;77;20995;-82
2022/01/25 04:09:06;;;;;;;119.37;54.23;;;;;;;0.61;83.98;100126.14;2291358;78;20952;-84
2022/01/25 04:12:06;;;;;;;123.73;55.87;;;;;;;0.60;84.04;100127.32;2291448;78;20948;-84
2022/01/25 04:15:07;;;;;;;120.63;55.30;;;;;;;0.58;84.27;100127.21;2291648;78;20948;-85
2022/01/25 04:27:57;;;;;;;113.93;54.10;;;;;;;0.65;84.56;100118.26;2268065;78;21029;-85
2022/01/25 04:30:57;;;;;;;114.10;54.33;;;;;;;0.63;84.82;100119.44;2291295;78;21324;-84
2022/01/25 04:34:36;;;;;;;105.80;51.17;;;;;;;0.66;84.51;100104.63;2289972;78;20951;-84
2022/01/25 04:53:59;;;;;;;100.60;47.87;;;;;;;0.72;85.90;100109.30;2289831;77;21049;-85
2022/01/25 05:00:20;;;;;;;89.67;45.07;;;;;;;0.68;85.94;100101.77;2243818;79;21743;-86
2022/01/25 05:03:25;;;;;;;97.17;46.93;;;;;;;0.69;86.02;100097.52;2282995;78;21060;-84
2022/01/25 05:06:22;;;;;;;92.03;47.80;;;;;;;0.72;86.03;100096.06;2289206;77;21056;-85
2022/01/25 05:16:04;;;;;;;92.50;43.53;;;;;;;0.75;86.42;100095.39;2201433;80;21268;-86
2022/01/25 05:19:02;;;;;;;90.67;41.98;;;;;;;0.77;86.08;100088.67;2176656;80;21465;-85
2022/01/25 05:22:19;;;;;;;89.73;43.87;;;;;;;0.77;86.34;100083.14;2208460;80;20964;-84
2022/01/25 05:25:10;;;;;;;86.60;43.48;;;;;;;0.76;86.58;100079.18;2199992;80;21090;-86
2022/01/25 05:31:25;;;;;;;101.53;47.90;;;;;;;0.76;86.72;100071.47;2137386;82;21390;-84
2022/01/25 05:34:26;;;;;;;96.27;47.20;;;;;;;0.79;86.56;100065.25;2137001;83;20987;-84
2022/01/25 05:37:27;;;;;;;96.00;44.53;;;;;;;0.81;86.90;100064.58;2131971;83;21082;-84
2022/01/25 05:40:43;;;;;;;84.20;42.17;;;;;;;0.80;86.73;100064.08;2131671;82;20986;-83
2022/01/25 05:46:43;;;;;;;86.90;41.60;;;;;;;0.79;87.18;100060.11;2107648;83;21064;-84
2022/01/25 05:49:38;;;;;;;81.57;39.65;;;;;;;0.78;86.93;100058.33;2140987;80;21039;-84
2022/01/25 05:52:39;;;;;;;76.97;37.80;;;;;;;0.79;87.46;100045.98;2218129;80;20967;-81
2022/01/25 05:55:39;;;;;;;87.17;43.77;;;;;;;0.83;87.34;100045.02;2218451;80;20963;-85
2022/01/25 05:58:42;;;;;;;87.87;42.40;;;;;;;0.87;86.97;100044.86;2185665;80;20988;-85
2022/01/25 06:01:48;;;;;;;96.07;45.53;;;;;;;0.90;87.08;100042.50;2182716;80;20944;-85
2022/01/25 06:04:52;;;;;;;79.73;40.03;;;;;;;0.95;87.25;100046.28;2182008;81;20937;-85
2022/01/25 06:07:53;;;;;;;85.10;45.13;;;;;;;0.99;87.08;100049.56;2205006;81;21373;-85
2022/01/25 06:10:53;;;;;;;86.27;44.23;;;;;;;0.99;86.91;100046.98;2180821;81;20932;-85
2022/01/25 06:13:54;;;;;;;83.07;42.20;;;;;;;0.98;86.81;100047.77;2204675;81;20948;-83
2022/01/25 06:16:54;;;;;;;85.80;42.67;;;;;;;1.00;87.08;100047.48;2204740;81;20999;-84
2022/01/25 06:19:54;;;;;;;91.60;43.87;;;;;;;1.01;86.80;100044.52;2189360;81;21406;-85
2022/01/25 06:22:55;;;;;;;94.03;45.47;;;;;;;1.05;86.94;100052.94;2180300;82;21616;-84
2022/01/25 06:25:55;;;;;;;88.83;44.03;;;;;;;1.05;86.87;100047.80;2180271;82;20983;-84
2022/01/25 06:28:56;;;;;;;100.97;51.47;;;;;;;1.06;86.73;100045.33;2180895;82;21874;-84
2022/01/25 06:31:57;;;;;;;89.47;43.97;;;;;;;1.06;86.79;100046.62;2181053;82;20924;-85
2022/01/25 06:34:57;;;;;;;80.60;38.57;;;;;;;1.08;86.72;100035.15;2179849;82;21047;-85
2022/01/25 06:37:58;;;;;;;72.00;35.73;;;;;;;1.07;86.61;100029.11;2181178;82;20968;-85
2022/01/25 06:40:58;;;;;;;67.43;34.90;;;;;;;1.07;86.72;100038.51;2179624;82;20999;-84
2022/01/25 06:43:59;;;;;;;74.47;36.80;;;;;;;1.06;86.94;100038.91;2180576;82;21027;-86
2022/01/25 06:46:59;;;;;;;71.13;35.50;;;;;;;1.03;86.81;100040.37;2180198;82;21034;-84
2022/01/25 06:50:00;;;;;;;62.20;31.47;;;;;;;1.00;86.78;100042.73;2180526;82;20971;-85
2022/01/25 06:53:00;;;;;;;57.50;30.27;;;;;;;1.00;86.78;100041.05;2180330;82;20983;-84
2022/01/25 06:56:04;;;;;;;51.67;28.93;;;;;;;0.98;86.92;100041.74;2179714;82;20978;-82
2022/01/25 06:59:03;;;;;;;59.03;30.43;;;;;;;0.95;86.77;100048.84;2179183;82;20971;-85
2022/01/25 07:02:03;;;;;;;57.07;30.70;;;;;;;0.93;87.08;100040.14;2179694;82;20968;-83
2022/01/25 07:05:07;;;;;;;54.73;32.10;;;;;;;0.94;87.11;100049.64;2179735;82;20995;-84
2022/01/25 07:08:08;;;;;;;54.70;30.07;;;;;;;0.97;86.97;100042.13;2179876;82;21926;-84
2022/01/25 07:11:08;;;;;;;54.43;29.70;;;;;;;1.00;86.94;100038.48;2179164;82;20963;-84
2022/01/25 07:14:09;;;;;;;47.70;26.73;;;;;;;1.01;86.82;100045.80;2179316;82;20944;-84
2022/01/25 07:17:09;;;;;;;54.87;28.23;;;;;;;1.03;86.87;100036.52;2179451;82;21371;-83
2022/01/25 07:20:09;;;;;;;47.57;27.97;;;;;;;1.04;87.07;100039.20;2179582;80;21414;-84
2022/01/25 07:23:10;;;;;;;49.07;26.57;;;;;;;1.04;86.93;100051.16;2179050;82;21704;-84
2022/01/25 07:26:11;;;;;;;43.30;25.77;;;;;;;1.03;86.95;100046.41;2180030;82;21381;-85
2022/01/25 07:32:15;;;;;;;50.47;29.97;;;;;;;1.11;86.65;100041.39;2156634;82;20951;-84
2022/01/25 07:35:15;;;;;;;53.60;29.93;;;;;;;1.17;86.61;100040.52;2179355;82;21018;-84
2022/01/25 07:38:16;;;;;;;51.50;30.40;;;;;;;1.24;86.48;100044.00;2179688;82;20976;-85
2022/01/25 07:41:17;;;;;;;52.67;28.90;;;;;;;1.29;86.36;100041.74;2179448;82;21042;-83
2022/01/25 07:47:20;;;;;;;39.70;24.17;;;;;;;1.42;85.90;100051.17;2156651;82;21080;-84
2022/01/25 07:50:20;;;;;;;37.73;22.63;;;;;;;1.46;85.70;100045.05;2180251;82;20969;-84
2022/01/25 07:53:21;;;;;;;39.30;24.33;;;;;;;1.53;85.48;100038.62;2180442;82;20952;-83
2022/01/25 07:56:21;;;;;;;35.20;22.07;;;;;;;1.55;85.37;100038.33;2179920;82;20972;-83
2022/01/25 07:59:22;;;;;;;47.60;25.83;;;;;;;1.54;85.28;100045.55;2180389;82;20979;-82
2022/01/25 08:02:22;;;;;;;54.70;29.80;;;;;;;1.56;85.29;100043.97;2179612;82;20971;-81
2022/01/25 08:05:24;;;;;;;48.63;27.73;;;;;;;1.54;85.13;100043.87;2179249;82;21405;-85
2022/01/25 08:08:24;;;;;;;57.00;31.67;;;;;;;1.55;84.96;100039.22;2179331;82;21026;-84
2022/01/25 08:11:25;;;;;;;55.77;30.60;;;;;;;1.57;85.01;100043.18;2179339;82;21441;-84
2022/01/25 08:14:25;;;;;;;48.20;27.73;;;;;;;1.58;85.01;100040.71;2179709;82;20936;-84
2022/01/25 08:17:26;;;;;;;49.83;25.93;;;;;;;1.63;84.93;100030.72;2180168;82;21082;-84
2022/01/25 08:20:26;;;;;;;52.50;27.70;;;;;;;1.73;84.90;100026.66;2179616;81;21058;-82
2022/01/25 08:23:27;;;;;;;50.90;27.17;;;;;;;1.89;84.56;100030.77;2179864;82;20999;-83
2022/01/25 08:26:27;;;;;;;55.30;28.57;;;;;;;1.97;84.16;100018.78;2180313;82;20987;-83
2022/01/25 08:29:28;;;;;;;54.03;26.70;;;;;;;2.02;83.80;100023.83;2180239;82;20980;-84
2022/01/25 08:32:28;;;;;;;69.07;31.43;;;;;;;2.02;83.46;100023.43;2179658;82;20983;-84
2022/01/25 08:35:29;;;;;;;70.00;33.80;;;;;;;2.03;83.47;100025.61;2179104;82;21066;-83
2022/01/25 08:38:29;;;;;;;66.17;33.10;;;;;;;2.05;83.46;100023.63;2179516;82;21003;-85
2022/01/25 08:41:30;;;;;;;57.73;29.50;;;;;;;2.01;83.28;100014.32;2179442;82;20991;-84
2022/01/25 08:44:30;;;;;;;41.93;21.03;;;;;;;2.00;83.32;100018.58;2179924;82;20975;-85
2022/01/25 08:47:31;;;;;;;47.17;24.67;;;;;;;2.02;83.29;100017.39;2180572;82;22011;-84
2022/01/25 08:50:32;;;;;;;35.63;20.93;;;;;;;2.03;83.29;100006.30;2181203;82;21014;-84
2022/01/25 08:53:32;;;;;;;34.33;22.07;;;;;;;2.14;82.98;99999.74;2180814;82;20936;-84
2022/01/25 08:56:33;;;;;;;38.93;23.80;;;;;;;2.29;83.02;99988.61;2181189;82;21028;-83
2022/01/25 08:59:33;;;;;;;38.70;22.33;;;;;;;2.40;82.55;99994.92;2181450;82;20974;-83
2022/01/25 09:02:34;;;;;;;34.67;20.13;;;;;;;2.46;82.11;99991.44;2180639;82;21981;-84
2022/01/25 09:05:36;;;;;;;33.10;20.30;;;;;;;2.52;81.89;99990.93;2179855;82;21442;-83
2022/01/25 09:08:37;;;;;;;35.03;20.83;;;;;;;2.60;81.64;99987.17;2180183;82;21058;-83
2022/01/25 09:11:37;;;;;;;40.77;24.00;;;;;;;2.63;81.26;99991.63;2179616;82;20943;-82
2022/01/25 09:14:38;;;;;;;35.40;20.53;;;;;;;2.64;81.34;99988.25;2180826;82;20995;-84
2022/01/25 09:17:38;;;;;;;36.07;21.53;;;;;;;2.64;80.91;99991.72;2180473;82;21091;-84
2022/01/25 09:20:39;;;;;;;34.53;20.67;;;;;;;2.64;81.11;99990.83;2196395;80;20992;-84
2022/01/25 09:23:39;;;;;;;32.07;20.10;;;;;;;2.65;80.94;99993.50;2206107;81;20924;-83
2022/01/25 09:26:40;;;;;;;30.67;18.97;;;;;;;2.59;80.71;99994.77;2206224;81;21292;-84
2022/01/25 09:29:40;;;;;;;31.10;19.20;;;;;;;2.49;80.69;99989.05;2206450;81;21379;-84
2022/01/25 09:32:42;;;;;;;34.57;20.00;;;;;;;2.51;80.84;99987.46;2205483;81;21091;-85
2022/01/25 09:35:43;;;;;;;34.50;20.70;;;;;;;2.54;80.85;99976.05;2205282;81;20948;-84
2022/01/25 09:38:44;;;;;;;36.83;20.10;;;;;;;2.50;80.82;99978.34;2205695;81;21058;-83
2022/01/25 09:41:44;;;;;;;37.60;21.13;;;;;;;2.58;80.85;99971.08;2204663;81;20955;-84
2022/01/25 09:44:45;;;;;;;47.80;24.47;;;;;;;2.61;80.64;99979.92;2205375;81;20955;-82
2022/01/25 09:47:45;;;;;;;37.17;21.03;;;;;;;2.64;80.83;99981.80;2204874;81;21309;-84
2022/01/25 09:50:46;;;;;;;32.10;18.57;;;;;;;2.63;80.67;99972.28;2205666;81;20921;-83
2022/01/25 09:53:46;;;;;;;35.63;20.63;;;;;;;2.59;80.51;99969.00;2205683;81;21079;-84
2022/01/25 09:56:47;;;;;;;35.73;19.30;;;;;;;2.56;80.65;99966.72;2206283;81;20996;-83
2022/01/25 09:59:47;;;;;;;33.00;19.17;;;;;;;2.56;80.67;99961.97;2206756;81;20986;-85
2022/01/25 10:02:51;;;;;;;32.97;19.87;;;;;;;2.63;80.71;99961.98;2205678;81;20940;-83
2022/01/25 10:05:50;;;;;;;35.43;20.03;;;;;;;2.56;80.58;99968.02;2205371;81;21027;-84
2022/01/25 10:08:51;;;;;;;32.30;20.17;;;;;;;2.54;80.71;99960.59;2205761;81;20975;-82
2022/01/25 10:11:52;;;;;;;28.60;18.40;;;;;;;2.49;80.80;99960.70;2205706;81;20996;-84
2022/01/25 10:14:52;;;;;;;30.70;20.83;;;;;;;2.49;80.94;99955.55;2205989;81;20929;-84
2022/01/25 10:17:53;;;;;;;32.07;20.80;;;;;;;2.49;80.94;99952.97;2205811;81;21007;-82
2022/01/25 10:20:53;;;;;;;31.13;20.43;;;;;;;2.50;80.98;99951.28;2188829;81;21057;-86
2022/01/25 10:23:54;;;;;;;26.73;18.67;;;;;;;2.55;80.97;99949.48;2181264;82;20970;-85
2022/01/25 10:26:54;;;;;;;28.20;18.70;;;;;;;2.55;80.92;99948.59;2180497;82;20967;-84
2022/01/25 10:29:56;;;;;;;28.73;18.37;;;;;;;2.52;80.92;99944.14;2179334;81;20979;-83
2022/01/25 10:32:59;;;;;;;29.07;20.03;;;;;;;2.49;81.09;99940.09;2180496;80;21038;-84
2022/01/25 10:35:59;;;;;;;25.47;17.00;;;;;;;2.56;81.17;99924.20;2181133;82;20999;-84
2022/01/25 10:39:00;;;;;;;33.83;20.13;;;;;;;2.72;80.98;99926.03;2181385;82;20936;-85
2022/01/25 10:42:00;;;;;;;32.80;21.07;;;;;;;2.83;80.37;99915.07;2181025;82;20971;-84
2022/01/25 10:45:04;;;;;;;31.90;20.40;;;;;;;2.92;80.30;99906.98;2181101;82;20967;-85
2022/01/25 10:48:04;;;;;;;44.90;25.33;;;;;;;3.02;79.70;99905.03;2181443;82;20995;-84
2022/01/25 10:51:05;;;;;;;33.20;21.20;;;;;;;3.16;79.57;99904.55;2181415;82;20987;-84
2022/01/25 10:54:05;;;;;;;29.50;19.13;;;;;;;3.20;78.73;99911.66;2180287;82;21258;-83
2022/01/25 10:57:06;;;;;;;33.50;21.40;;;;;;;3.20;78.70;99895.78;2180863;82;21435;-84
2022/01/25 11:00:07;;;;;;;36.33;21.47;;;;;;;3.22;78.78;99897.16;2180657;82;21026;-85
2022/01/25 11:03:08;;;;;;;45.57;24.77;;;;;;;3.33;78.89;99892.61;2181056;82;21023;-85
2022/01/25 11:06:08;;;;;;;43.80;23.83;;;;;;;3.37;78.56;99894.16;2179216;82;21035;-84
2022/01/25 11:09:10;;;;;;;38.13;22.30;;;;;;;3.30;78.55;99898.88;2179727;82;20959;-84
2022/01/25 11:12:11;;;;;;;37.53;22.37;;;;;;;3.24;78.41;99903.30;2179700;82;21038;-86
2022/01/25 11:18:14;;;;;;;26.73;18.90;;;;;;;3.03;78.64;99896.50;2156407;82;21032;-84
2022/01/25 11:21:15;;;;;;;25.33;17.33;;;;;;;2.93;79.00;99894.58;2179872;80;21502;-83
2022/01/25 11:24:15;;;;;;;24.70;17.13;;;;;;;2.86;79.08;99898.49;2181409;82;21006;-85
2022/01/25 11:27:16;;;;;;;20.13;15.87;;;;;;;2.78;79.37;99894.17;2180518;82;21232;-80
2022/01/25 11:30:16;;;;;;;22.20;16.50;;;;;;;2.75;79.63;99897.86;2179997;82;20999;-83
2022/01/25 11:33:17;;;;;;;27.47;17.23;;;;;;;2.71;79.85;99897.59;2179774;82;21902;-84
2022/01/25 11:36:19;;;;;;;24.60;17.03;;;;;;;2.71;80.05;99902.74;2179681;82;21051;-84
2022/01/25 11:39:20;;;;;;;23.67;16.13;;;;;;;2.62;80.03;99900.91;2180394;82;21358;-84
2022/01/25 11:42:21;;;;;;;30.37;19.23;;;;;;;2.49;80.36;99899.25;2180672;82;20991;-82
2022/01/25 11:45:21;;;;;;;31.50;19.37;;;;;;;2.35;80.58;99893.27;2181090;82;21399;-84
2022/01/25 11:48:22;;;;;;;23.50;16.60;;;;;;;2.31;80.95;99887.83;2179481;82;21394;-82
2022/01/25 11:51:22;;;;;;;29.13;17.40;;;;;;;2.31;80.97;99880.10;2179739;82;21913;-84
2022/01/25 11:54:23;;;;;;;26.00;17.30;;;;;;;2.39;80.94;99881.05;2179342;82;21015;-83
2022/01/25 11:57:23;;;;;;;29.30;17.57;;;;;;;2.51;80.75;99886.95;2179720;82;21007;-82
2022/01/25 12:03:31;;;;;;;23.90;16.73;;;;;;;2.76;80.21;99883.28;2135071;82;21022;-84
2022/01/25 12:06:36;;;;;;;23.43;16.40;;;;;;;2.80;80.08;99878.79;2179721;82;21018;-83
2022/01/25 12:09:44;;;;;;;23.27;15.93;;;;;;;2.87;80.06;99878.35;2179693;82;21306;-84
2022/01/25 12:12:40;;;;;;;25.13;16.37;;;;;;;2.85;79.50;99873.50;2179051;82;20994;-84
2022/01/25 12:15:46;;;;;;;25.37;16.03;;;;;;;2.88;79.62;99862.08;2156602;82;21411;-84
2022/01/25 12:18:46;;;;;;;24.63;17.27;;;;;;;2.91;79.36;99858.39;2180458;82;21098;-83
2022/01/25 12:21:52;;;;;;;23.43;14.93;;;;;;;2.89;79.11;99856.13;2180759;81;21010;-84
2022/01/25 12:25:03;;;;;;;23.20;16.20;;;;;;;2.92;79.05;99849.84;2180186;82;21015;-83
2022/01/25 12:27:57;;;;;;;23.23;15.67;;;;;;;2.99;78.73;99851.98;2178565;82;20979;-82
2022/01/25 12:30:57;;;;;;;23.17;15.77;;;;;;;3.03;78.89;99847.48;2179356;80;21038;-83
2022/01/25 12:33:58;;;;;;;21.17;14.83;;;;;;;3.13;78.57;99851.08;2179824;82;21635;-83
2022/01/25 12:36:58;;;;;;;24.10;15.20;;;;;;;3.17;77.86;99852.14;2180662;82;21034;-84
2022/01/25 12:39:59;;;;;;;24.33;16.67;;;;;;;3.09;77.88;99852.11;2180248;82;20986;-82
2022/01/25 12:43:00;;;;;;;24.27;15.93;;;;;;;3.08;78.02;99855.48;2180721;82;20966;-82
2022/01/25 12:46:01;;;;;;;21.13;14.67;;;;;;;3.07;78.10;99853.31;2180427;82;21026;-83
2022/01/25 12:49:02;;;;;;;22.70;15.03;;;;;;;3.04;78.04;99846.69;2181187;82;21039;-83
2022/01/25 12:52:02;;;;;;;23.13;14.20;;;;;;;3.01;78.09;99854.25;2180359;82;20995;-82
2022/01/25 12:55:03;;;;;;;18.27;14.07;;;;;;;2.94;78.06;99853.41;2180380;82;20994;-84
2022/01/25 12:58:03;;;;;;;20.20;14.93;;;;;;;2.87;78.28;99857.32;2179757;82;21030;-82
2022/01/25 13:01:04;;;;;;;24.13;15.03;;;;;;;2.82;78.50;99857.86;2179209;82;20972;-81
2022/01/25 13:04:05;;;;;;;23.53;14.40;;;;;;;2.73;78.51;99859.50;2179374;82;20970;-82
2022/01/25 13:07:05;;;;;;;20.07;14.17;;;;;;;2.62;78.87;99857.98;2180050;82;20959;-83
2022/01/25 13:10:09;;;;;;;22.87;14.67;;;;;;;2.65;79.78;99859.84;2180044;82;20928;-83
2022/01/25 13:13:15;;;;;;;23.80;14.63;;;;;;;2.63;79.50;99853.71;2179744;82;21006;-82
2022/01/25 13:16:11;;;;;;;22.90;14.57;;;;;;;2.60;79.59;99847.97;2177906;82;21063;-82
2022/01/25 13:19:12;;;;;;;26.63;15.57;;;;;;;2.59;79.67;99841.41;2179094;82;21077;-83
2022/01/25 13:22:14;;;;;;;32.37;19.27;;;;;;;2.59;79.65;99833.67;2178863;80;21465;-82
2022/01/25 13:31:38;;;;;;;31.43;18.13;;;;;;;2.64;80.00;99855.48;2156592;82;20974;-83
2022/01/25 13:34:38;;;;;;;31.53;18.80;;;;;;;2.54;80.03;99851.05;2179600;82;20999;-83
2022/01/25 13:37:39;;;;;;;30.50;18.87;;;;;;;2.48;80.34;99849.39;2179024;82;21003;-82
2022/01/25 13:47:05;;;;;;;23.70;16.63;;;;;;;2.33;81.02;99857.89;2156785;82;21437;-82
2022/01/25 13:50:02;;;;;;;26.60;17.10;;;;;;;2.30;81.13;99854.73;2178798;82;21026;-82
2022/01/25 13:53:02;;;;;;;23.63;17.63;;;;;;;2.26;81.32;99851.48;2179480;82;20963;-83
2022/01/25 13:56:03;;;;;;;29.90;18.40;;;;;;;2.22;81.30;99849.52;2179841;82;21069;-83
2022/01/25 13:59:03;;;;;;;28.87;18.87;;;;;;;2.20;81.50;99852.40;2179591;82;21058;-81
2022/01/25 14:02:04;;;;;;;32.60;18.80;;;;;;;2.19;81.78;99848.05;2180201;82;20975;-81
2022/01/25 14:05:04;;;;;;;27.97;18.83;;;;;;;2.16;81.86;99856.87;2180365;82;20975;-82
2022/01/25 14:08:05;;;;;;;27.03;18.67;;;;;;;2.10;82.08;99844.91;2180529;82;21394;-82
2022/01/25 14:11:08;;;;;;;29.00;18.80;;;;;;;2.06;82.06;99846.41;2180776;82;21497;-82
2022/01/25 14:24:05;;;;;;;38.23;24.17;;;;;;;2.09;82.21;99839.27;2178832;82;21370;-82
2022/01/25 14:27:05;;;;;;;32.67;20.97;;;;;;;2.09;82.52;99841.84;2178823;82;20995;-82
2022/01/25 14:30:06;;;;;;;29.80;19.50;;;;;;;2.07;82.55;99840.86;2178703;82;20975;-82
2022/01/25 14:33:11;;;;;;;32.20;19.83;;;;;;;2.04;82.60;99841.56;2178893;82;20948;-82
2022/01/25 14:36:08;;;;;;;30.77;19.23;;;;;;;1.99;83.09;99842.08;2178551;82;20999;-82
2022/01/25 14:39:09;;;;;;;37.03;19.13;;;;;;;1.94;83.59;99851.21;2178639;82;21019;-82
2022/01/25 14:42:10;;;;;;;36.30;20.37;;;;;;;1.87;84.33;99846.08;2179346;82;21008;-82
2022/01/25 14:45:15;;;;;;;31.43;20.20;;;;;;;1.78;84.31;99844.22;2179461;82;20971;-77
2022/01/25 14:48:13;;;;;;;33.83;21.37;;;;;;;1.74;84.50;99854.73;2178306;80;21011;-82
2022/01/25 14:51:14;;;;;;;28.70;20.60;;;;;;;1.71;84.67;99857.08;2179050;82;21062;-82
2022/01/25 14:54:14;;;;;;;35.70;21.63;;;;;;;1.70;84.70;99854.01;2179741;82;20975;-82
2022/01/25 15:00:17;;;;;;;34.90;21.83;;;;;;;1.64;85.41;99860.45;2155960;82;21027;-82
2022/01/25 15:03:17;;;;;;;34.50;23.13;;;;;;;1.62;85.60;99865.91;2178585;82;21042;-81
2022/01/25 15:06:18;;;;;;;38.93;23.43;;;;;;;1.60;85.72;99879.56;2178049;82;21226;-82
2022/01/25 15:09:18;;;;;;;36.70;24.13;;;;;;;1.61;85.83;99872.73;2178276;82;20995;-82
2022/01/25 15:12:19;;;;;;;42.13;23.27;;;;;;;1.59;85.97;99870.06;2178917;82;21003;-83
2022/01/25 15:15:45;;;;;;;38.53;23.20;;;;;;;1.57;86.93;99874.23;2178983;82;20963;-83
2022/01/25 15:18:23;;;;;;;41.80;23.13;;;;;;;1.54;86.48;99868.89;2175256;82;21078;-82
2022/01/25 15:21:24;;;;;;;43.60;24.77;;;;;;;1.56;86.61;99870.27;2178670;80;21027;-82
2022/01/25 15:24:29;;;;;;;45.63;26.97;;;;;;;1.56;86.82;99871.55;2179016;82;21019;-83
2022/01/25 15:27:29;;;;;;;55.80;28.97;;;;;;;1.56;86.76;99874.13;2178501;82;21370;-82
2022/01/25 15:30:29;;;;;;;43.77;25.43;;;;;;;1.54;86.77;99871.85;2179010;82;21014;-82
2022/01/25 15:33:30;;;;;;;43.87;26.13;;;;;;;1.49;87.10;99873.25;2179436;82;20971;-82
2022/01/25 15:36:31;;;;;;;43.90;26.23;;;;;;;1.46;87.41;99870.48;2179387;82;21015;-83
2022/01/25 15:39:32;;;;;;;41.93;25.53;;;;;;;1.45;87.39;99868.70;2179572;82;20973;-82
2022/01/25 15:42:34;;;;;;;43.10;25.87;;;;;;;1.45;87.66;99868.30;2179389;82;21050;-82
2022/01/25 15:45:55;;;;;;;48.57;26.50;;;;;;;1.44;87.55;99874.23;2179742;82;21007;-82
2022/01/25 15:48:37;;;;;;;43.50;26.70;;;;;;;1.45;87.55;99871.27;2176937;82;21007;-82
2022/01/25 15:51:37;;;;;;;50.53;29.93;;;;;;;1.47;87.61;99873.14;2180047;82;20968;-83
2022/01/25 15:54:38;;;;;;;51.40;29.07;;;;;;;1.48;87.41;99880.47;2180155;82;20998;-83
2022/01/25 15:57:39;;;;;;;50.47;28.20;;;;;;;1.48;87.52;99881.36;2180008;82;21947;-82
2022/01/25 16:00:43;;;;;;;52.27;28.67;;;;;;;1.48;87.90;99874.93;2180198;82;20968;-83
2022/01/25 16:03:42;;;;;;;45.33;26.10;;;;;;;1.47;87.67;99877.01;2180512;80;21023;-80
2022/01/25 16:06:42;;;;;;;43.67;24.30;;;;;;;1.49;87.92;99877.11;2180908;82;21339;-80
2022/01/25 16:09:43;;;;;;;39.20;23.07;;;;;;;1.47;88.10;99872.26;2180368;82;20979;-83
2022/01/25 16:12:44;;;;;;;40.17;24.80;;;;;;;1.42;88.16;99876.22;2179399;82;21051;-83
2022/01/25 16:15:44;;;;;;;37.63;22.77;;;;;;;1.40;88.54;99875.23;2179549;82;21014;-81
2022/01/25 16:18:48;;;;;;;44.17;25.70;;;;;;;1.39;87.88;99872.16;2179240;82;20991;-81